createdAt,value
2018-07-15T00:01:11.710Z,60.16
2018-07-15T00:03:40.419Z,60.19
2018-07-15T00:06:09.114Z,60.06
2018-07-15T00:08:37.802Z,60.06
2018-07-15T00:11:06.544Z,60.26
2018-07-15T00:13:35.306Z,60.30
2018-07-15T00:16:04.153Z,60.50
2018-07-15T00:18:32.893Z,60.68
2018-07-15T00:21:01.636Z,60.61
2018-07-15T00:23:30.359Z,60.76
2018-07-15T00:25:59.038Z,60.78
2018-07-15T00:28:27.725Z,60.86
2018-07-15T00:30:56.372Z,61.06
2018-07-15T00:33:25.197Z,61.13
2018-07-15T00:35:53.981Z,61.06
2018-07-15T00:38:22.730Z,60.85
2018-07-15T00:40:51.426Z,60.81
2018-07-15T00:43:20.175Z,60.93
2018-07-15T00:45:48.840Z,61.07
2018-07-15T00:48:17.534Z,60.91
2018-07-15T00:50:46.241Z,60.95
2018-07-15T00:53:14.953Z,61.31
2018-07-15T00:55:43.590Z,61.37
2018-07-15T00:58:12.294Z,61.37
2018-07-15T01:00:46.168Z,61.48
2018-07-15T01:03:14.939Z,61.37
2018-07-15T01:05:43.583Z,61.62
2018-07-15T01:08:12.253Z,61.87
2018-07-15T01:10:40.910Z,61.75
2018-07-15T01:13:09.658Z,62.15
2018-07-15T01:15:38.338Z,62.02
2018-07-15T01:18:06.990Z,61.98
2018-07-15T01:20:35.825Z,61.96
2018-07-15T01:23:04.545Z,61.97
2018-07-15T01:25:33.220Z,61.95
2018-07-15T01:28:01.899Z,61.64
2018-07-15T01:30:30.618Z,61.81
2018-07-15T01:32:59.271Z,62.22
2018-07-15T01:35:27.932Z,62.46
2018-07-15T01:37:56.695Z,62.28
2018-07-15T01:40:25.332Z,62.46
2018-07-15T01:42:54.026Z,62.67
2018-07-15T01:45:22.769Z,62.29
2018-07-15T01:47:51.467Z,62.73
2018-07-15T01:50:20.553Z,63.51
2018-07-15T01:52:49.183Z,62.67
2018-07-15T01:55:17.844Z,64.24
2018-07-15T01:57:46.540Z,63.28
2018-07-15T02:00:15.245Z,64.09
2018-07-15T02:02:43.918Z,63.46
2018-07-15T02:05:12.588Z,63.38
2018-07-15T02:07:41.258Z,63.82
2018-07-15T02:10:10.031Z,64.14
2018-07-15T02:12:38.692Z,64.56
2018-07-15T02:15:07.426Z,64.65
2018-07-15T02:17:36.064Z,64.55
2018-07-15T02:20:04.865Z,64.38
2018-07-15T02:22:33.537Z,64.29
2018-07-15T02:25:02.300Z,64.73
2018-07-15T02:27:30.986Z,65.43
2018-07-15T02:29:59.681Z,65.88
2018-07-15T02:32:28.385Z,66.08
2018-07-15T02:34:57.015Z,67.25
2018-07-15T02:37:25.679Z,67.72
2018-07-15T02:39:54.361Z,68.09
2018-07-15T02:42:23.034Z,68.57
2018-07-15T02:44:51.729Z,69.04
2018-07-15T02:47:20.435Z,69.06
2018-07-15T02:49:49.148Z,69.38
2018-07-15T02:52:17.841Z,69.24
2018-07-15T02:54:46.554Z,68.20
2018-07-15T02:57:15.227Z,68.84
2018-07-15T02:59:43.944Z,69.15
2018-07-15T03:02:12.651Z,69.35
2018-07-15T03:04:41.391Z,69.54
2018-07-15T03:07:10.067Z,69.75
2018-07-15T03:09:38.787Z,70.30
2018-07-15T03:12:07.561Z,70.09
2018-07-15T03:14:36.246Z,70.24
2018-07-15T03:17:05.000Z,70.65
2018-07-15T03:19:33.670Z,70.75
2018-07-15T03:22:02.418Z,71.28
2018-07-15T03:24:31.150Z,71.75
2018-07-15T03:26:59.876Z,71.81
2018-07-15T03:29:28.570Z,71.36
2018-07-15T03:31:57.308Z,71.92
2018-07-15T03:34:26.073Z,72.14
2018-07-15T03:36:54.814Z,71.48
2018-07-15T03:39:23.548Z,71.64
2018-07-15T03:41:52.256Z,72.51
2018-07-15T03:44:20.974Z,72.38
2018-07-15T03:46:49.803Z,72.33
2018-07-15T03:49:18.499Z,72.78
2018-07-15T03:51:47.438Z,72.63
2018-07-15T03:54:16.190Z,72.82
2018-07-15T03:56:44.858Z,72.08
2018-07-15T03:59:13.550Z,72.92
2018-07-15T04:01:42.245Z,71.74
2018-07-15T04:04:10.966Z,71.61
2018-07-15T04:06:39.671Z,72.01
2018-07-15T04:09:08.381Z,71.96
2018-07-15T04:11:37.511Z,71.29
2018-07-15T04:14:06.500Z,71.78
2018-07-15T04:16:35.204Z,71.27
2018-07-15T04:19:03.871Z,70.18
2018-07-15T04:21:32.606Z,70.84
2018-07-15T04:24:01.322Z,70.38
2018-07-15T04:26:30.032Z,69.99
2018-07-15T04:28:58.798Z,70.40
2018-07-15T04:31:27.513Z,70.61
2018-07-15T04:33:56.204Z,70.07
2018-07-15T04:36:24.926Z,69.58
2018-07-15T04:38:53.620Z,68.89
2018-07-15T04:41:22.557Z,68.67
2018-07-15T04:43:51.354Z,67.78
2018-07-15T04:46:20.086Z,67.25
2018-07-15T04:48:48.759Z,67.30
2018-07-15T04:51:17.457Z,67.24
2018-07-15T04:53:46.290Z,67.26
2018-07-15T04:56:14.965Z,66.69
2018-07-15T04:58:43.938Z,66.98
2018-07-15T05:01:12.618Z,66.62
2018-07-15T05:03:41.319Z,66.78
2018-07-15T05:06:10.056Z,66.54
2018-07-15T05:08:38.725Z,66.59
2018-07-15T05:11:07.438Z,66.58
2018-07-15T05:13:36.132Z,67.03
2018-07-15T05:16:05.214Z,67.19
2018-07-15T05:18:33.987Z,67.25
2018-07-15T05:21:02.607Z,67.25
2018-07-15T05:23:31.291Z,66.71
2018-07-15T05:26:00.015Z,67.09
2018-07-15T05:28:28.729Z,66.54
2018-07-15T05:30:57.429Z,65.24
2018-07-15T05:33:26.279Z,64.69
2018-07-15T05:35:54.961Z,63.74
2018-07-15T05:38:23.634Z,63.59
2018-07-15T05:40:52.283Z,63.41
2018-07-15T05:43:21.100Z,63.40
2018-07-15T05:45:49.846Z,62.30
2018-07-15T05:48:18.564Z,62.42
2018-07-15T05:50:47.324Z,61.63
2018-07-15T05:53:16.058Z,61.69
2018-07-15T05:55:44.838Z,61.85
2018-07-15T05:58:13.567Z,61.36
2018-07-15T06:00:42.309Z,61.13
2018-07-15T06:03:10.989Z,60.91
2018-07-15T06:05:39.715Z,61.16
2018-07-15T06:08:08.451Z,61.03
2018-07-15T06:10:37.238Z,60.49
2018-07-15T06:13:05.942Z,60.22
2018-07-15T06:15:34.646Z,60.10
2018-07-15T06:18:03.448Z,60.18
2018-07-15T06:20:32.140Z,60.10
2018-07-15T06:23:00.843Z,59.89
2018-07-15T06:25:29.543Z,60.05
2018-07-15T06:27:58.261Z,59.66
2018-07-15T06:30:26.958Z,58.99
2018-07-15T06:32:55.643Z,59.12
2018-07-15T06:35:24.331Z,60.25
2018-07-15T06:37:53.030Z,59.16
2018-07-15T06:40:21.779Z,58.48
2018-07-15T06:42:50.491Z,59.82
2018-07-15T06:45:19.236Z,58.68
2018-07-15T06:47:47.931Z,58.17
2018-07-15T06:50:16.683Z,57.97
2018-07-15T06:52:45.337Z,57.73
2018-07-15T06:55:14.112Z,57.55
2018-07-15T06:57:42.831Z,57.12
2018-07-15T07:00:11.665Z,56.92
2018-07-15T07:02:40.311Z,57.31
2018-07-15T07:05:09.117Z,55.76
2018-07-15T07:07:37.998Z,55.76
2018-07-15T07:10:06.681Z,55.42
2018-07-15T07:12:35.382Z,55.30
2018-07-15T07:15:04.293Z,55.26
2018-07-15T07:17:33.188Z,55.07
2018-07-15T07:20:02.051Z,55.05
2018-07-15T07:22:30.827Z,55.96
2018-07-15T07:24:59.491Z,56.01
2018-07-15T07:27:30.425Z,55.22
2018-07-15T07:29:59.799Z,55.81
2018-07-15T07:32:28.578Z,55.41
2018-07-15T07:34:57.283Z,54.15
2018-07-15T07:37:26.257Z,53.82
2018-07-15T07:39:54.988Z,53.69
2018-07-15T07:42:23.993Z,53.24
2018-07-15T07:44:52.734Z,53.52
2018-07-15T07:47:21.456Z,52.74
2018-07-15T07:49:50.193Z,54.43
2018-07-15T07:52:18.879Z,54.19
2018-07-15T07:54:47.542Z,52.47
2018-07-15T07:57:16.224Z,52.67
2018-07-15T07:59:44.912Z,51.61
2018-07-15T08:02:13.751Z,50.20
2018-07-15T08:04:42.517Z,49.35
2018-07-15T08:07:11.239Z,47.32
2018-07-15T08:09:39.961Z,46.70
2018-07-15T08:12:09.601Z,46.20
2018-07-15T08:14:38.415Z,47.66
2018-07-15T08:17:07.143Z,47.68
2018-07-15T08:19:35.834Z,42.82
2018-07-15T08:22:04.542Z,43.20
2018-07-15T08:24:33.235Z,43.74
2018-07-15T08:27:01.924Z,43.48
2018-07-15T08:29:30.640Z,44.83
2018-07-15T08:31:59.313Z,45.38
2018-07-15T08:34:27.976Z,43.54
2018-07-15T08:36:56.688Z,43.14
2018-07-15T08:39:25.380Z,42.51
2018-07-15T08:41:54.073Z,43.58
2018-07-15T08:44:22.896Z,43.41
2018-07-15T08:46:51.568Z,43.22
2018-07-15T08:49:20.279Z,43.55
2018-07-15T08:51:48.961Z,44.04
2018-07-15T08:54:17.743Z,43.65
2018-07-15T08:56:46.437Z,43.66
2018-07-15T08:59:15.117Z,43.16
2018-07-15T09:01:43.785Z,43.70
2018-07-15T09:04:12.503Z,41.38
2018-07-15T09:06:41.320Z,40.95
2018-07-15T09:09:10.069Z,41.97
2018-07-15T09:11:38.782Z,43.33
2018-07-15T09:14:07.576Z,42.77
2018-07-15T09:16:36.250Z,42.11
2018-07-15T09:19:04.925Z,43.42
2018-07-15T09:21:33.616Z,42.67
2018-07-15T09:24:02.292Z,42.67
2018-07-15T09:26:31.039Z,42.51
2018-07-15T09:28:59.684Z,42.05
2018-07-15T09:31:28.431Z,42.69
2018-07-15T09:33:57.122Z,42.42
2018-07-15T09:36:25.818Z,41.25
2018-07-15T09:38:54.529Z,40.76
2018-07-15T09:41:23.215Z,41.13
2018-07-15T09:43:51.990Z,40.94
2018-07-15T09:46:21.886Z,40.86
2018-07-15T09:48:50.632Z,40.81
2018-07-15T09:51:19.347Z,42.13
2018-07-15T09:53:48.026Z,41.06
2018-07-15T09:56:16.692Z,41.77
2018-07-15T09:58:45.448Z,42.67
2018-07-15T10:01:14.718Z,40.73
2018-07-15T10:03:43.414Z,41.06
2018-07-15T10:06:12.439Z,41.41
2018-07-15T10:08:41.144Z,41.79
2018-07-15T10:11:09.843Z,42.40
2018-07-15T10:13:38.487Z,41.82
2018-07-15T10:16:07.132Z,42.24
2018-07-15T10:18:35.851Z,40.65
2018-07-15T10:21:04.579Z,42.19
2018-07-15T10:23:33.303Z,41.95
2018-07-15T10:26:01.991Z,42.83
2018-07-15T10:28:30.716Z,41.92
2018-07-15T10:30:59.478Z,41.72
2018-07-15T10:33:28.146Z,42.24
2018-07-15T10:35:56.838Z,40.96
2018-07-15T10:38:25.506Z,41.69
2018-07-15T10:40:54.239Z,41.73
2018-07-15T10:43:22.934Z,41.37
2018-07-15T10:45:51.598Z,39.92
2018-07-15T10:48:20.296Z,40.83
2018-07-15T10:50:48.974Z,41.24
2018-07-15T10:53:17.702Z,40.14
2018-07-15T10:55:46.371Z,40.29
2018-07-15T10:58:15.321Z,39.53
2018-07-15T11:00:44.072Z,39.64
2018-07-15T11:03:12.764Z,39.61
2018-07-15T11:05:41.463Z,38.69
2018-07-15T11:08:10.244Z,38.77
2018-07-15T11:10:38.937Z,38.73
2018-07-15T11:13:07.652Z,36.84
2018-07-15T11:15:36.351Z,37.83
2018-07-15T11:18:05.944Z,35.15
2018-07-15T11:20:35.034Z,34.15
2018-07-15T11:23:03.738Z,34.54
2018-07-15T11:25:32.538Z,34.19
2018-07-15T11:28:01.262Z,34.15
2018-07-15T11:30:29.951Z,33.56
2018-07-15T11:32:58.628Z,35.21
2018-07-15T11:35:27.389Z,34.81
2018-07-15T11:37:56.084Z,33.65
2018-07-15T11:40:24.834Z,33.34
2018-07-15T11:42:53.587Z,32.97
2018-07-15T11:45:22.304Z,34.53
2018-07-15T11:47:51.243Z,33.77
2018-07-15T11:50:19.974Z,33.49
2018-07-15T11:52:48.667Z,34.79
2018-07-15T11:55:17.367Z,35.01
2018-07-15T11:57:46.410Z,33.55
2018-07-15T12:00:15.085Z,31.93
2018-07-15T12:02:43.799Z,33.51
2018-07-15T12:05:12.514Z,32.32
2018-07-15T12:07:41.249Z,33.63
2018-07-15T12:10:09.972Z,34.08
2018-07-15T12:12:38.755Z,34.56
2018-07-15T12:15:07.484Z,34.15
2018-07-15T12:17:36.165Z,33.77
2018-07-15T12:20:05.026Z,34.70
2018-07-15T12:22:33.740Z,34.41
2018-07-15T12:25:02.521Z,34.00
2018-07-15T12:27:31.225Z,31.42
2018-07-15T12:29:59.905Z,31.67
2018-07-15T12:32:28.638Z,32.24
2018-07-15T12:34:57.379Z,31.97
2018-07-15T12:37:26.081Z,32.46
2018-07-15T12:39:54.765Z,31.50
2018-07-15T12:42:23.529Z,32.56
2018-07-15T12:44:52.236Z,33.46
2018-07-15T12:47:21.016Z,31.75
2018-07-15T12:49:49.747Z,31.24
2018-07-15T12:52:18.505Z,33.64
2018-07-15T12:54:47.239Z,33.90
2018-07-15T12:57:16.069Z,32.96
2018-07-15T12:59:44.804Z,32.75
2018-07-15T13:02:13.558Z,33.80
2018-07-15T13:04:42.311Z,37.23
2018-07-15T13:07:11.002Z,36.81
2018-07-15T13:09:39.684Z,36.67
2018-07-15T13:12:09.064Z,35.46
2018-07-15T13:14:37.783Z,35.31
2018-07-15T13:17:06.520Z,35.73
2018-07-15T13:19:35.337Z,35.13
2018-07-15T13:22:04.046Z,35.33
2018-07-15T13:24:32.763Z,37.01
2018-07-15T13:27:01.432Z,37.36
2018-07-15T13:29:30.119Z,38.24
2018-07-15T13:31:58.859Z,36.17
2018-07-15T13:34:27.561Z,36.23
2018-07-15T13:36:56.366Z,35.81
2018-07-15T13:39:25.025Z,35.70
2018-07-15T13:41:53.950Z,36.53
2018-07-15T13:44:22.736Z,38.10
2018-07-15T13:46:51.501Z,41.03
2018-07-15T13:49:20.281Z,42.54
2018-07-15T13:51:49.126Z,42.37
2018-07-15T13:54:18.375Z,43.77
2018-07-15T13:56:47.070Z,43.81
2018-07-15T13:59:15.893Z,44.37
2018-07-15T14:01:44.770Z,43.33
2018-07-15T14:04:13.655Z,42.22
2018-07-15T14:06:42.390Z,40.71
2018-07-15T14:09:12.242Z,39.85
2018-07-15T14:11:41.092Z,39.01
2018-07-15T14:14:09.841Z,38.58
2018-07-15T14:16:38.730Z,38.16
2018-07-15T14:19:07.458Z,37.97
2018-07-15T14:21:36.342Z,36.36
2018-07-15T14:24:05.183Z,35.50
2018-07-15T14:26:33.924Z,34.85
2018-07-15T14:29:02.739Z,35.10
2018-07-15T14:31:31.588Z,35.94
2018-07-15T14:34:00.327Z,34.27
2018-07-15T14:36:29.075Z,35.44
2018-07-15T14:38:57.847Z,34.59
2018-07-15T14:41:26.632Z,33.61
2018-07-15T14:43:55.332Z,32.12
2018-07-15T14:46:24.017Z,33.00
2018-07-15T14:48:52.780Z,34.06
2018-07-15T14:51:22.060Z,33.98
2018-07-15T14:53:50.794Z,32.79
2018-07-15T14:56:20.187Z,35.10
2018-07-15T14:58:48.997Z,34.27
2018-07-15T15:01:17.722Z,33.65
2018-07-15T15:03:46.424Z,32.40
2018-07-15T15:06:15.419Z,33.54
2018-07-15T15:08:44.169Z,33.49
2018-07-15T15:11:13.013Z,33.12
2018-07-15T15:13:41.743Z,32.89
2018-07-15T15:17:39.644Z,34.88
2018-07-15T15:20:08.445Z,35.28
2018-07-15T15:22:37.486Z,37.83
2018-07-15T15:25:06.463Z,38.57
2018-07-15T15:27:35.157Z,39.13
2018-07-15T15:30:05.549Z,39.33
2018-07-15T15:32:34.212Z,39.05
2018-07-15T15:35:02.911Z,38.83
2018-07-15T15:37:31.755Z,38.86
2018-07-15T15:40:00.592Z,37.15
2018-07-15T15:42:29.355Z,36.51
2018-07-15T15:44:58.152Z,36.17
2018-07-15T15:47:26.888Z,36.38
2018-07-15T15:49:55.606Z,37.16
2018-07-15T15:52:24.323Z,37.61
2018-07-15T15:54:53.038Z,36.94
2018-07-15T15:57:21.877Z,37.99
